createdAt,value
2023-02-25T00:01:22.116Z,8.10
2023-02-25T00:03:53.202Z,8.50
2023-02-25T00:06:22.473Z,8.50
2023-02-25T00:08:50.744Z,8.80
2023-02-25T00:11:19.575Z,9.00
2023-02-25T00:13:47.121Z,9.20
2023-02-25T00:16:15.499Z,9.40
2023-02-25T00:18:46.691Z,9.60
2023-02-25T00:21:16.804Z,9.50
2023-02-25T00:23:46.329Z,9.40
2023-02-25T00:26:14.014Z,9.40
2023-02-25T00:28:41.966Z,9.20
2023-02-25T00:31:15.870Z,9.30
2023-02-25T00:33:43.392Z,9.20
2023-02-25T00:36:13.567Z,9.40
2023-02-25T00:38:41.420Z,9.50
2023-02-25T00:41:13.873Z,9.70
2023-02-25T00:43:42.431Z,9.70
2023-02-25T00:46:10.938Z,9.70
2023-02-25T00:48:39.251Z,9.60
2023-02-25T00:51:12.692Z,9.50
2023-02-25T00:53:40.471Z,9.50
2023-02-25T00:56:09.435Z,9.50
2023-02-25T00:58:38.087Z,9.60
2023-02-25T01:01:14.850Z,9.50
2023-02-25T01:03:42.208Z,9.60
2023-02-25T01:06:09.888Z,9.40
2023-02-25T01:08:37.242Z,9.50
2023-02-25T01:11:13.905Z,9.60
2023-02-25T01:13:41.337Z,9.60
2023-02-25T01:16:28.613Z,9.70
2023-02-25T01:18:59.165Z,9.80
2023-02-25T01:21:29.096Z,9.70
2023-02-25T01:23:58.967Z,9.70
2023-02-25T01:26:29.151Z,9.70
2023-02-25T01:28:56.510Z,9.60
2023-02-25T01:31:25.178Z,9.70
2023-02-25T01:33:52.503Z,9.60
2023-02-25T01:36:19.750Z,9.70
2023-02-25T01:38:47.045Z,9.70
2023-02-25T01:41:14.427Z,9.70
2023-02-25T01:43:42.486Z,9.70
2023-02-25T01:46:09.728Z,9.60
2023-02-25T01:48:40.317Z,9.50
2023-02-25T01:51:13.094Z,9.70
2023-02-25T01:53:47.227Z,9.80
2023-02-25T01:56:18.384Z,9.90
2023-02-25T01:58:47.679Z,10.00
2023-02-25T02:01:21.070Z,10.20
2023-02-25T02:03:50.367Z,10.30
2023-02-25T02:06:28.159Z,10.40
2023-02-25T02:08:55.802Z,10.30
2023-02-25T02:11:23.094Z,10.40
2023-02-25T02:13:56.184Z,10.40
2023-02-25T02:16:29.208Z,10.40
2023-02-25T02:19:01.992Z,10.40
2023-02-25T02:21:57.291Z,10.60
2023-02-25T02:24:42.575Z,10.40
2023-02-25T02:27:41.753Z,10.40
2023-02-25T02:30:26.912Z,10.40
2023-02-25T02:33:16.444Z,10.30
2023-02-25T02:36:19.361Z,10.20
2023-02-25T02:39:04.398Z,10.30
2023-02-25T02:41:47.321Z,10.30
2023-02-25T02:44:31.318Z,10.20
2023-02-25T02:47:23.774Z,10.20
2023-02-25T02:50:34.770Z,10.10
2023-02-25T02:53:09.949Z,10.30
2023-02-25T02:55:41.416Z,10.40
2023-02-25T02:58:22.270Z,10.40
2023-02-25T03:00:55.845Z,10.50
2023-02-25T03:03:36.379Z,10.40
2023-02-25T03:06:09.188Z,10.40
2023-02-25T03:08:44.882Z,10.30
2023-02-25T03:11:13.736Z,10.20
2023-02-25T03:13:41.583Z,10.20
2023-02-25T03:16:14.742Z,10.20
2023-02-25T03:18:53.142Z,10.30
2023-02-25T03:21:25.905Z,10.30
2023-02-25T03:23:54.567Z,10.20
2023-02-25T03:26:23.609Z,10.10
2023-02-25T03:28:51.326Z,10.00
2023-02-25T03:31:29.411Z,10.00
2023-02-25T03:34:02.713Z,10.00
2023-02-25T03:36:37.618Z,9.90
2023-02-25T03:39:35.374Z,10.00
2023-02-25T03:42:05.789Z,10.00
2023-02-25T03:44:44.283Z,9.90
2023-02-25T03:47:13.146Z,9.90
2023-02-25T03:49:59.298Z,9.80
2023-02-25T03:52:28.065Z,9.70
2023-02-25T03:54:57.425Z,9.60
2023-02-25T03:57:35.162Z,9.50
2023-02-25T04:00:13.504Z,9.40
2023-02-25T04:02:40.893Z,9.40
2023-02-25T04:05:10.210Z,9.30
2023-02-25T04:07:37.587Z,9.20
2023-02-25T04:10:08.317Z,9.10
2023-02-25T04:12:35.627Z,9.00
2023-02-25T04:15:03.916Z,8.90
2023-02-25T04:17:31.108Z,8.80
2023-02-25T04:19:58.695Z,8.80
2023-02-25T04:22:26.099Z,8.80
2023-02-25T04:24:53.387Z,8.80
2023-02-25T04:27:20.861Z,8.80
2023-02-25T04:29:48.224Z,8.80
2023-02-25T04:32:15.836Z,8.80
2023-02-25T04:34:43.177Z,8.90
2023-02-25T04:37:10.470Z,8.80
2023-02-25T04:39:37.856Z,8.80
2023-02-25T04:42:05.284Z,8.70
2023-02-25T04:44:32.572Z,8.70
2023-02-25T04:46:59.777Z,8.60
2023-02-25T04:49:27.223Z,8.60
2023-02-25T04:51:55.103Z,8.50
2023-02-25T04:54:22.891Z,8.50
2023-02-25T04:56:50.240Z,8.40
2023-02-25T04:59:17.658Z,8.20
2023-02-25T05:01:44.921Z,8.10
2023-02-25T05:04:12.357Z,8.00
2023-02-25T05:06:39.546Z,7.90
2023-02-25T05:09:08.248Z,7.80
2023-02-25T05:11:37.241Z,7.80
2023-02-25T05:14:04.454Z,7.70
2023-02-25T05:16:31.830Z,7.70
2023-02-25T05:18:59.167Z,7.70
2023-02-25T05:21:27.087Z,7.70
2023-02-25T05:23:54.561Z,7.60
2023-02-25T05:26:24.506Z,7.40
2023-02-25T05:28:54.340Z,7.30
2023-02-25T05:31:23.182Z,7.20
2023-02-25T05:33:51.067Z,7.10
2023-02-25T05:36:19.063Z,7.10
2023-02-25T05:38:46.631Z,7.20
2023-02-25T05:41:15.438Z,7.10
2023-02-25T05:43:42.827Z,7.30
2023-02-25T05:46:13.241Z,7.10
2023-02-25T05:48:42.156Z,6.90
2023-02-25T05:51:28.029Z,6.60
2023-02-25T05:53:57.416Z,6.50
2023-02-25T05:56:30.822Z,6.30
2023-02-25T05:58:59.432Z,6.20
2023-02-25T06:01:28.855Z,6.20
2023-02-25T06:03:59.112Z,6.20
2023-02-25T06:06:28.910Z,6.20
2023-02-25T06:08:56.206Z,6.20
2023-02-25T06:11:26.790Z,6.20
2023-02-25T06:13:56.108Z,6.20
2023-02-25T06:16:25.967Z,6.20
2023-02-25T06:18:53.584Z,6.20
2023-02-25T06:21:20.883Z,6.20
2023-02-25T06:23:50.430Z,6.20
2023-02-25T06:26:18.394Z,6.20
2023-02-25T06:28:45.875Z,6.20
2023-02-25T06:31:15.353Z,6.20
2023-02-25T06:33:42.879Z,6.10
2023-02-25T06:36:10.576Z,6.20
2023-02-25T06:38:38.200Z,6.20
2023-02-25T06:41:10.667Z,6.20
2023-02-25T06:43:38.545Z,6.30
2023-02-25T06:46:07.638Z,6.10
2023-02-25T06:48:34.995Z,6.00
2023-02-25T06:51:03.115Z,6.10
2023-02-25T06:53:30.452Z,6.20
2023-02-25T06:55:59.314Z,6.10
2023-02-25T06:58:26.533Z,6.10
2023-02-25T07:00:54.158Z,6.20
2023-02-25T07:03:21.532Z,6.20
2023-02-25T07:05:48.807Z,6.20
2023-02-25T07:08:16.039Z,6.20
2023-02-25T07:10:43.323Z,6.20
2023-02-25T07:13:11.310Z,6.20
2023-02-25T07:15:38.563Z,6.30
2023-02-25T07:18:06.384Z,6.30
2023-02-25T07:20:33.715Z,6.40
2023-02-25T07:23:04.089Z,6.50
2023-02-25T07:25:31.606Z,6.60
2023-02-25T07:27:58.904Z,6.70
2023-02-25T07:30:26.347Z,6.70
2023-02-25T07:32:53.575Z,6.80
2023-02-25T07:35:20.857Z,6.80
2023-02-25T07:37:48.033Z,6.90
2023-02-25T07:40:16.835Z,7.00
2023-02-25T07:42:44.497Z,7.00
2023-02-25T07:45:12.074Z,7.00
2023-02-25T07:47:40.158Z,7.10
2023-02-25T07:50:11.602Z,7.20
2023-02-25T07:52:40.240Z,7.30
2023-02-25T07:55:07.984Z,7.30
2023-02-25T07:57:35.868Z,7.40
2023-02-25T08:00:05.039Z,7.40
2023-02-25T08:02:32.390Z,7.40
2023-02-25T08:05:00.520Z,7.50
2023-02-25T08:07:29.934Z,7.50
2023-02-25T08:09:57.174Z,7.50
2023-02-25T08:12:24.422Z,7.50
2023-02-25T08:14:51.603Z,7.60
2023-02-25T08:17:18.963Z,7.50
2023-02-25T08:19:46.534Z,7.60
2023-02-25T08:22:13.809Z,7.60
2023-02-25T08:24:41.576Z,7.50
2023-02-25T08:27:08.813Z,7.50
2023-02-25T08:29:37.337Z,7.50
2023-02-25T08:32:07.124Z,7.40
2023-02-25T08:34:35.195Z,7.40
2023-02-25T08:37:02.481Z,7.30
2023-02-25T08:39:31.094Z,7.30
2023-02-25T08:41:58.422Z,7.30
2023-02-25T08:44:25.588Z,7.30
2023-02-25T08:46:52.834Z,7.40
2023-02-25T08:49:20.232Z,7.40
2023-02-25T08:51:59.475Z,7.40
2023-02-25T08:54:26.691Z,7.50
2023-02-25T08:56:55.581Z,7.50
2023-02-25T08:59:23.067Z,7.50
2023-02-25T09:01:52.213Z,7.50
2023-02-25T09:04:22.884Z,7.60
2023-02-25T09:06:51.958Z,7.70
2023-02-25T09:09:21.529Z,7.90
2023-02-25T09:11:49.421Z,8.00
2023-02-25T09:14:17.525Z,8.20
2023-02-25T09:16:45.237Z,8.40
2023-02-25T09:19:15.753Z,8.50
2023-02-25T09:21:43.523Z,8.40
2023-02-25T09:24:11.258Z,8.40
2023-02-25T09:26:38.708Z,8.40
2023-02-25T09:29:06.921Z,8.30
2023-02-25T09:31:36.988Z,8.40
2023-02-25T09:34:07.616Z,8.40
2023-02-25T09:36:35.057Z,8.60
2023-02-25T09:39:03.049Z,8.90
2023-02-25T09:41:35.284Z,9.00
2023-02-25T09:44:05.882Z,9.00
2023-02-25T09:46:37.328Z,8.90
2023-02-25T09:49:33.759Z,9.00
2023-02-25T09:52:22.567Z,9.10
2023-02-25T09:54:55.818Z,9.20
2023-02-25T09:57:23.717Z,9.00
2023-02-25T09:59:56.063Z,9.00
2023-02-25T10:02:39.201Z,9.20
2023-02-25T10:05:23.816Z,9.40
2023-02-25T10:07:58.108Z,9.70
2023-02-25T10:10:58.883Z,9.50
2023-02-25T10:13:46.934Z,9.50
2023-02-25T10:16:34.407Z,9.40
2023-02-25T10:19:10.676Z,9.50
2023-02-25T10:22:14.907Z,9.40
2023-02-25T10:25:22.436Z,9.50
2023-02-25T10:28:16.055Z,9.60
2023-02-25T10:31:08.099Z,9.50
2023-02-25T10:33:38.183Z,9.50
2023-02-25T10:36:10.415Z,9.60
2023-02-25T10:38:42.270Z,9.60
2023-02-25T10:41:09.547Z,9.60
2023-02-25T10:43:36.903Z,9.70
2023-02-25T10:46:33.126Z,9.80
2023-02-25T10:49:16.319Z,9.80
2023-02-25T10:52:03.562Z,9.90
2023-02-25T10:54:33.527Z,9.80
2023-02-25T10:57:28.397Z,9.70
2023-02-25T11:00:04.593Z,9.70
2023-02-25T11:02:51.716Z,9.90
2023-02-25T11:05:43.700Z,10.20
2023-02-25T11:08:33.685Z,10.10
2023-02-25T11:11:23.843Z,10.00
2023-02-25T11:14:18.855Z,10.00
2023-02-25T11:16:46.557Z,10.00
2023-02-25T11:19:30.584Z,10.20
2023-02-25T11:22:00.543Z,10.30
2023-02-25T11:24:37.015Z,10.60
2023-02-25T11:27:06.869Z,10.50
2023-02-25T11:29:38.422Z,10.70
2023-02-25T11:32:10.167Z,10.80
2023-02-25T11:34:49.264Z,10.90
2023-02-25T11:37:40.785Z,10.90
2023-02-25T11:40:32.928Z,10.70
2023-02-25T11:43:17.173Z,10.80
2023-02-25T11:46:08.445Z,10.90
2023-02-25T11:49:25.289Z,11.00
2023-02-25T11:52:26.569Z,10.90
2023-02-25T11:55:09.052Z,10.80
2023-02-25T11:58:03.574Z,10.50
2023-02-25T12:00:57.518Z,10.40
2023-02-25T12:03:41.149Z,10.30
2023-02-25T12:06:08.723Z,10.30
2023-02-25T12:08:55.744Z,10.10
2023-02-25T12:11:44.143Z,10.10
2023-02-25T12:14:33.157Z,10.10
2023-02-25T12:17:04.570Z,10.10
2023-02-25T12:19:54.094Z,10.20
2023-02-25T12:22:47.694Z,10.20
2023-02-25T12:25:17.835Z,10.20
2023-02-25T12:28:22.948Z,10.40
2023-02-25T12:31:17.708Z,10.60
2023-02-25T12:34:27.402Z,10.70
2023-02-25T12:37:20.659Z,10.90
2023-02-25T12:40:24.157Z,11.10
2023-02-25T12:43:06.188Z,10.90
2023-02-25T12:45:58.129Z,11.00
2023-02-25T12:49:14.040Z,10.90
2023-02-25T12:51:55.276Z,10.90
2023-02-25T12:54:59.422Z,10.90
2023-02-25T12:57:35.826Z,10.90
2023-02-25T13:00:21.851Z,11.00
2023-02-25T13:03:24.194Z,11.20
2023-02-25T13:06:13.224Z,11.20
2023-02-25T13:09:05.369Z,11.10
2023-02-25T13:12:10.673Z,11.10
2023-02-25T13:14:49.881Z,11.20
2023-02-25T13:17:35.533Z,11.60
2023-02-25T13:20:21.028Z,11.90
2023-02-25T13:23:06.263Z,11.60
2023-02-25T13:25:46.188Z,11.60
2023-02-25T13:28:41.134Z,11.70
2023-02-25T13:31:19.210Z,11.60
2023-02-25T13:33:46.492Z,11.10
2023-02-25T13:36:32.149Z,10.80
2023-02-25T13:39:32.443Z,10.70
2023-02-25T13:42:16.578Z,10.80
2023-02-25T13:45:18.628Z,10.80
2023-02-25T13:48:06.663Z,11.00
2023-02-25T13:51:02.111Z,10.80
2023-02-25T13:53:47.849Z,10.70
2023-02-25T13:56:43.714Z,10.70
2023-02-25T13:59:43.778Z,10.70
2023-02-25T14:02:41.821Z,10.50
2023-02-25T14:05:42.970Z,10.30
2023-02-25T14:08:41.016Z,10.10
2023-02-25T14:11:34.038Z,10.10
2023-02-25T14:14:30.686Z,9.90
2023-02-25T14:17:10.247Z,9.80
2023-02-25T14:20:04.043Z,9.80
2023-02-25T14:22:35.911Z,9.70
2023-02-25T14:25:18.569Z,9.60
2023-02-25T14:28:05.891Z,9.80
2023-02-25T14:31:00.962Z,9.70
2023-02-25T14:33:46.787Z,9.40
2023-02-25T14:36:46.376Z,9.30
2023-02-25T14:39:19.665Z,9.40
2023-02-25T14:41:56.499Z,9.30
2023-02-25T14:44:37.481Z,9.20
2023-02-25T14:47:20.787Z,9.10
2023-02-25T14:49:59.314Z,9.10
2023-02-25T14:52:49.376Z,9.00
2023-02-25T14:55:48.379Z,8.90
2023-02-25T14:58:44.391Z,8.80
2023-02-25T15:01:30.084Z,8.80
2023-02-25T15:04:40.597Z,8.80
2023-02-25T15:07:48.787Z,8.70
2023-02-25T15:10:37.356Z,8.70
2023-02-25T15:13:10.626Z,8.70
2023-02-25T15:15:46.137Z,8.70
2023-02-25T15:18:44.912Z,8.70
2023-02-25T15:21:30.411Z,8.60
2023-02-25T15:23:58.217Z,8.60
2023-02-25T15:26:40.686Z,8.60
2023-02-25T15:29:32.380Z,8.60
2023-02-25T15:32:10.974Z,8.60
2023-02-25T15:34:52.106Z,8.60
2023-02-25T15:37:51.073Z,8.60
2023-02-25T15:40:19.013Z,8.50
2023-02-25T15:42:46.461Z,8.50
2023-02-25T15:45:33.574Z,8.40
2023-02-25T15:48:15.239Z,8.20
2023-02-25T15:50:42.470Z,8.10
2023-02-25T15:53:26.546Z,8.10
2023-02-25T15:56:13.723Z,8.10
2023-02-25T15:58:52.844Z,8.10
2023-02-25T16:01:46.410Z,8.00
2023-02-25T16:04:44.246Z,8.00
2023-02-25T16:07:17.380Z,7.90
2023-02-25T16:09:52.738Z,7.90
2023-02-25T16:12:20.536Z,7.90
2023-02-25T16:14:58.732Z,7.90
2023-02-25T16:17:44.832Z,7.80
2023-02-25T16:20:46.391Z,7.80
2023-02-25T16:23:15.911Z,7.70
2023-02-25T16:26:08.496Z,7.60
2023-02-25T16:28:54.789Z,7.30
2023-02-25T16:31:29.787Z,7.30
2023-02-25T16:34:09.041Z,7.30
2023-02-25T16:36:56.454Z,7.30
2023-02-25T16:39:27.879Z,7.20
2023-02-25T16:41:55.619Z,7.20
2023-02-25T16:44:30.359Z,7.10
2023-02-25T16:46:57.692Z,7.10
2023-02-25T16:49:38.871Z,7.00
2023-02-25T16:52:07.484Z,7.00
2023-02-25T16:54:38.430Z,7.00
2023-02-25T16:57:18.066Z,7.00
2023-02-25T16:59:46.886Z,7.00
2023-02-25T17:02:17.206Z,6.90
2023-02-25T17:04:48.499Z,6.80
2023-02-25T17:07:22.418Z,6.60
2023-02-25T17:09:54.809Z,6.60
2023-02-25T17:12:45.644Z,6.40
2023-02-25T17:15:21.492Z,6.30
2023-02-25T17:17:54.091Z,6.20
2023-02-25T17:20:28.805Z,6.20
2023-02-25T17:22:59.843Z,5.90
2023-02-25T17:25:34.182Z,5.90
2023-02-25T17:28:01.547Z,5.70
2023-02-25T17:30:42.615Z,5.80
2023-02-25T17:33:26.657Z,5.60
2023-02-25T17:36:19.055Z,5.50
2023-02-25T17:38:46.909Z,5.00
2023-02-25T17:41:18.840Z,4.50
2023-02-25T17:43:46.407Z,4.40
2023-02-25T17:46:29.556Z,4.40
2023-02-25T17:49:02.939Z,4.30
2023-02-25T17:51:36.417Z,4.20
2023-02-25T17:54:08.484Z,4.10
2023-02-25T17:56:36.683Z,4.10
2023-02-25T17:59:08.484Z,4.10
2023-02-25T18:01:48.342Z,3.90
2023-02-25T18:04:33.235Z,3.90
2023-02-25T18:07:22.042Z,3.80
2023-02-25T18:09:51.066Z,3.80
2023-02-25T18:12:38.124Z,3.90
2023-02-25T18:15:16.858Z,4.00
2023-02-25T18:17:49.862Z,3.90
2023-02-25T18:20:29.246Z,3.60
2023-02-25T18:23:00.294Z,3.50
2023-02-25T18:25:34.685Z,3.30
2023-02-25T18:28:03.131Z,3.20
2023-02-25T18:30:32.264Z,3.10
2023-02-25T18:33:00.209Z,3.00
2023-02-25T18:35:29.770Z,3.10
2023-02-25T18:37:58.434Z,3.30
2023-02-25T18:40:30.242Z,3.10
2023-02-25T18:42:59.229Z,3.20
2023-02-25T18:45:28.926Z,3.10
2023-02-25T18:48:00.535Z,3.20
2023-02-25T18:50:32.205Z,3.30
2023-02-25T18:53:00.709Z,3.30
2023-02-25T18:55:30.954Z,3.50
2023-02-25T18:57:58.928Z,3.60
2023-02-25T19:00:28.160Z,3.60
2023-02-25T19:02:59.145Z,3.60
2023-02-25T19:05:30.550Z,3.60
2023-02-25T19:07:58.228Z,3.70
2023-02-25T19:10:28.716Z,3.70
2023-02-25T19:13:03.645Z,3.40
2023-02-25T19:15:30.954Z,3.30
2023-02-25T19:17:58.143Z,3.30
2023-02-25T19:20:25.584Z,3.30
2023-02-25T19:22:53.514Z,3.30
2023-02-25T19:25:24.760Z,3.30
2023-02-25T19:27:54.454Z,3.10
2023-02-25T19:30:25.391Z,3.10
2023-02-25T19:32:52.723Z,3.30
2023-02-25T19:35:20.013Z,3.20
2023-02-25T19:37:47.533Z,3.10
2023-02-25T19:40:16.095Z,3.20
2023-02-25T19:42:44.848Z,3.10
2023-02-25T19:45:15.163Z,3.10
2023-02-25T19:47:42.647Z,3.20
2023-02-25T19:50:11.730Z,3.10
2023-02-25T19:52:39.199Z,3.10
2023-02-25T19:55:07.654Z,3.10
2023-02-25T19:57:39.979Z,3.10
2023-02-25T20:00:13.736Z,3.10
2023-02-25T20:02:41.994Z,3.00
2023-02-25T20:05:10.519Z,2.80
2023-02-25T20:07:38.596Z,2.80
2023-02-25T20:10:11.868Z,2.90
2023-02-25T20:12:41.400Z,2.80
2023-02-25T20:15:10.280Z,2.80
2023-02-25T20:17:39.465Z,2.50
2023-02-25T20:20:08.886Z,2.50
2023-02-25T20:22:37.049Z,2.40
2023-02-25T20:25:05.017Z,2.30
2023-02-25T20:27:33.184Z,2.20
2023-02-25T20:30:00.714Z,2.20
2023-02-25T20:32:30.055Z,2.40
2023-02-25T20:34:57.926Z,2.30
2023-02-25T20:37:34.951Z,2.50
2023-02-25T20:40:02.418Z,2.60
2023-02-25T20:42:31.397Z,2.40
2023-02-25T20:44:59.842Z,2.40
2023-02-25T20:47:30.380Z,2.50
2023-02-25T20:49:58.334Z,2.50
2023-02-25T20:52:26.955Z,2.40
2023-02-25T20:54:54.624Z,2.40
2023-02-25T20:57:39.972Z,2.40
2023-02-25T21:00:26.001Z,2.40
2023-02-25T21:02:53.289Z,2.40
2023-02-25T21:05:20.536Z,2.40
2023-02-25T21:07:47.788Z,2.40
2023-02-25T21:10:15.186Z,2.30
2023-02-25T21:12:42.507Z,2.30
2023-02-25T21:15:10.676Z,2.20
2023-02-25T21:17:37.941Z,2.30
2023-02-25T21:20:06.964Z,2.30
2023-02-25T21:22:34.384Z,2.40
2023-02-25T21:25:02.216Z,2.30
2023-02-25T21:27:29.792Z,2.30
2023-02-25T21:29:57.371Z,2.30
2023-02-25T21:32:24.728Z,2.20
2023-02-25T21:34:51.946Z,2.20
2023-02-25T21:37:19.204Z,2.20
2023-02-25T21:39:46.676Z,2.20
2023-02-25T21:42:14.153Z,2.20
2023-02-25T21:44:41.430Z,2.20
2023-02-25T21:47:08.703Z,2.30
2023-02-25T21:49:36.088Z,2.20
2023-02-25T21:52:03.503Z,2.40
2023-02-25T21:54:30.722Z,2.50
2023-02-25T21:56:58.004Z,2.60
2023-02-25T21:59:26.135Z,2.60
2023-02-25T22:01:53.945Z,2.50
2023-02-25T22:04:21.188Z,2.30
2023-02-25T22:06:49.259Z,2.30
2023-02-25T22:09:18.027Z,2.30
2023-02-25T22:11:45.634Z,2.10
2023-02-25T22:14:12.878Z,2.00
2023-02-25T22:16:40.531Z,2.00
2023-02-25T22:19:07.872Z,2.20
2023-02-25T22:21:36.132Z,2.00
2023-02-25T22:24:04.903Z,1.90
2023-02-25T22:26:35.240Z,1.80
2023-02-25T22:29:05.699Z,1.60
2023-02-25T22:31:34.261Z,1.70
2023-02-25T22:34:02.880Z,1.60
2023-02-25T22:36:30.240Z,1.60
2023-02-25T22:38:57.730Z,1.50
2023-02-25T22:41:28.278Z,1.40
2023-02-25T22:43:57.321Z,1.40
2023-02-25T22:46:36.847Z,1.40
2023-02-25T22:49:05.847Z,1.40
2023-02-25T22:51:36.065Z,1.40
2023-02-25T22:54:04.837Z,1.40
2023-02-25T22:56:32.463Z,1.60
2023-02-25T22:59:00.152Z,1.50
2023-02-25T23:01:27.896Z,1.50
2023-02-25T23:03:56.320Z,1.50
2023-02-25T23:06:34.407Z,1.60
2023-02-25T23:09:08.893Z,1.60
2023-02-25T23:11:36.422Z,1.50
2023-02-25T23:14:04.575Z,1.30
2023-02-25T23:16:40.437Z,1.30
2023-02-25T23:19:10.972Z,1.30
2023-02-25T23:21:39.511Z,1.20
2023-02-25T23:24:08.497Z,1.20
2023-02-25T23:26:40.908Z,1.30
2023-02-25T23:29:09.988Z,1.20
2023-02-25T23:31:48.352Z,1.20
2023-02-25T23:34:20.953Z,1.40
2023-02-25T23:36:48.444Z,1.40
2023-02-25T23:39:16.432Z,1.50
2023-02-25T23:41:44.283Z,1.40
2023-02-25T23:44:12.384Z,1.40
2023-02-25T23:46:42.820Z,1.40
2023-02-25T23:49:13.268Z,1.30
2023-02-25T23:51:43.693Z,1.20
2023-02-25T23:54:14.963Z,1.20
2023-02-25T23:56:42.194Z,1.10
2023-02-25T23:59:10.527Z,1.10
